Time;durP1;ratioP1;P1;durP2;ratioP2;P2;SDS_P1;SDS_P2;PMS_P1;PMS_P2;Temp;Humidity;BMP_temperature;BMP_pressure;BME280_temperature;BME280_humidity;BME280_pressure;Samples;Min_cycle;Max_cycle;Signal;HPM_P1;HPM_P2
2024/01/23 00:00:43;;;;;;;0.10;0.10;;;;;;;-4.24;80.99;98277.00;5025921;28;20055;-58
2024/01/23 00:03:10;;;;;;;0.20;0.20;;;;;;;-4.22;80.89;98275.69;5024776;28;20049;-57
2024/01/23 00:05:37;;;;;;;0.10;0.10;;;;;;;-4.97;81.80;98196.88;5025839;28;20061;-57
2024/01/23 00:08:04;;;;;;;0.10;0.10;;;;;;;-4.98;81.44;98192.50;5026025;28;20053;-59
2024/01/23 00:10:31;;;;;;;0.10;0.10;;;;;;;-4.76;80.88;98220.44;5014239;28;20064;-57
2024/01/23 00:12:58;;;;;;;0.10;0.10;;;;;;;-4.32;80.67;98283.66;5006325;28;20604;-57
2024/01/23 00:15:25;;;;;;;0.10;0.10;;;;;;;-5.00;80.53;98174.91;5006228;28;20085;-57
2024/01/23 00:17:52;;;;;;;0.20;0.20;;;;;;;-4.37;80.30;98263.81;5006410;28;20083;-56
2024/01/23 00:20:19;;;;;;;0.10;0.10;;;;;;;-4.53;81.44;98264.63;5005906;28;20046;-58
2024/01/23 00:22:46;;;;;;;0.10;0.10;;;;;;;-4.54;81.41;98257.59;5004416;28;20046;-56
2024/01/23 00:25:12;;;;;;;0.10;0.10;;;;;;;-4.65;81.06;98254.69;5020488;28;20133;-57
2024/01/23 00:27:39;;;;;;;0.10;0.10;;;;;;;-4.70;80.58;98249.22;5020582;28;20057;-55
2024/01/23 00:30:09;;;;;;;0.10;0.10;;;;;;;-4.56;80.36;98251.59;5005718;28;20046;-56
2024/01/23 00:32:36;;;;;;;0.10;0.10;;;;;;;-4.53;80.09;98251.09;5005750;28;20575;-58
2024/01/23 00:35:03;;;;;;;0.10;0.10;;;;;;;-4.85;80.71;98200.31;5005586;28;20054;-58
2024/01/23 00:37:31;;;;;;;0.10;0.10;;;;;;;-4.66;81.01;98236.03;5004045;28;20356;-57
2024/01/23 00:39:59;;;;;;;0.20;0.20;;;;;;;-4.72;80.34;98245.13;5005668;28;20050;-59
2024/01/23 00:42:27;;;;;;;0.10;0.10;;;;;;;-4.79;80.72;98242.56;5005693;28;20129;-57
2024/01/23 00:44:54;;;;;;;0.10;0.10;;;;;;;-4.87;81.04;98239.47;5005787;28;20509;-57
2024/01/23 00:47:20;;;;;;;0.10;0.10;;;;;;;-4.97;80.88;98245.50;5005616;28;20050;-58
2024/01/23 00:49:47;;;;;;;0.10;0.10;;;;;;;-5.20;80.74;98245.56;5005392;28;20148;-56
2024/01/23 00:52:14;;;;;;;0.10;0.10;;;;;;;-5.18;81.01;98226.44;5005395;28;20054;-56
2024/01/23 00:54:41;;;;;;;0.10;0.10;;;;;;;-4.98;79.60;98227.63;5005319;28;20085;-56
2024/01/23 00:57:08;;;;;;;0.10;0.10;;;;;;;-5.04;79.25;98231.31;5004037;28;20137;-56
2024/01/23 00:59:35;;;;;;;0.10;0.10;;;;;;;-5.07;79.35;98220.16;5008858;28;20586;-56
2024/01/23 01:02:02;;;;;;;0.10;0.10;;;;;;;-7.89;79.68;97785.25;5024928;28;20045;-57
2024/01/23 01:04:29;;;;;;;0.10;0.10;;;;;;;-5.20;80.92;98228.56;5024776;28;20136;-58
2024/01/23 01:06:56;;;;;;;0.10;0.10;;;;;;;-5.15;80.76;98213.28;5014177;28;20061;-59
2024/01/23 01:09:23;;;;;;;0.10;0.10;;;;;;;-5.12;81.01;98220.88;5011461;28;20394;-56
2024/01/23 01:11:50;;;;;;;0.10;0.10;;;;;;;-5.08;81.55;98208.56;5024215;28;20152;-57
2024/01/23 01:14:16;;;;;;;0.17;0.17;;;;;;;-5.08;81.22;98215.81;5023183;28;20558;-58
2024/01/23 01:16:43;;;;;;;0.10;0.10;;;;;;;-5.12;80.74;98193.88;5024796;28;20049;-56
2024/01/23 01:19:10;;;;;;;0.10;0.10;;;;;;;-5.11;81.88;98217.16;5023334;28;20060;-56
2024/01/23 01:21:37;;;;;;;0.10;0.10;;;;;;;-5.77;82.05;98092.00;5024725;28;20057;-58
2024/01/23 01:24:04;;;;;;;0.10;0.10;;;;;;;-5.68;81.98;98107.56;5024457;28;20061;-56
2024/01/23 01:26:31;;;;;;;0.20;0.20;;;;;;;-4.88;82.47;98214.31;5024398;28;20064;-56
2024/01/23 01:28:57;;;;;;;0.10;0.10;;;;;;;-5.20;81.61;98153.78;5024381;28;20072;-57
2024/01/23 01:31:24;;;;;;;0.10;0.10;;;;;;;-5.43;82.04;98116.13;5022814;28;20460;-59
2024/01/23 01:33:51;;;;;;;0.10;0.10;;;;;;;-5.25;82.04;98140.16;5023039;28;20487;-57
2024/01/23 01:36:18;;;;;;;0.10;0.10;;;;;;;-5.40;81.56;98099.44;5024038;28;20045;-57
2024/01/23 01:38:45;;;;;;;0.15;0.15;;;;;;;-5.44;81.35;98092.88;5024094;28;20038;-57
2024/01/23 01:41:14;;;;;;;0.10;0.10;;;;;;;-6.03;81.55;98007.13;5022767;28;20053;-57
2024/01/23 01:43:42;;;;;;;0.10;0.10;;;;;;;-4.82;81.83;98193.63;5024078;28;20516;-57
2024/01/23 01:46:18;;;;;;;0.10;0.10;;;;;;;-4.82;81.79;98183.59;5022713;28;20060;-57
2024/01/23 01:48:47;;;;;;;0.10;0.10;;;;;;;-4.84;81.23;98190.34;5024280;28;20156;-56
2024/01/23 01:51:15;;;;;;;0.13;0.13;;;;;;;-5.77;80.62;98062.31;5024053;28;20053;-57
2024/01/23 01:53:43;;;;;;;0.10;0.10;;;;;;;-5.30;80.62;98115.81;5024168;28;20053;-57
2024/01/23 01:56:10;;;;;;;0.10;0.10;;;;;;;-4.85;80.50;98172.47;5022434;28;20065;-58
2024/01/23 01:58:41;;;;;;;0.10;0.10;;;;;;;-5.42;80.24;98074.56;5024090;28;20049;-58
2024/01/23 02:01:10;;;;;;;0.10;0.10;;;;;;;-4.86;80.67;98173.53;5019082;28;20138;-58
2024/01/23 02:03:37;;;;;;;0.10;0.10;;;;;;;-5.67;81.19;98060.63;5004007;28;20128;-57
2024/01/23 02:06:07;;;;;;;0.10;0.10;;;;;;;-5.12;81.92;98166.88;5004235;28;20054;-57
2024/01/23 02:08:38;;;;;;;0.10;0.10;;;;;;;-4.97;81.72;98169.03;5002236;28;20057;-56
2024/01/23 02:11:05;;;;;;;0.10;0.10;;;;;;;-5.17;81.65;98163.28;5003987;28;20061;-57
2024/01/23 02:13:32;;;;;;;0.10;0.10;;;;;;;-5.16;82.18;98165.75;5004009;28;20531;-58
2024/01/23 02:15:59;;;;;;;0.10;0.10;;;;;;;-5.43;81.06;98099.91;5002706;28;20058;-57
2024/01/23 02:18:26;;;;;;;0.10;0.10;;;;;;;-5.09;80.25;98165.59;5004031;28;20061;-57
2024/01/23 02:20:53;;;;;;;0.10;0.10;;;;;;;-5.19;80.51;98166.22;5002350;28;20053;-57
2024/01/23 02:23:20;;;;;;;0.10;0.10;;;;;;;-5.16;81.40;98175.72;5002468;28;20501;-57
2024/01/23 02:25:46;;;;;;;0.10;0.10;;;;;;;-5.08;80.38;98135.63;5003411;28;20054;-56
2024/01/23 02:28:15;;;;;;;0.15;0.15;;;;;;;-5.11;79.79;98141.53;5004330;28;20448;-56
2024/01/23 02:30:42;;;;;;;0.10;0.10;;;;;;;-5.11;79.95;98146.94;5002404;28;20045;-57
2024/01/23 02:33:09;;;;;;;0.10;0.10;;;;;;;-5.19;79.98;98139.22;4986165;28;20046;-57
2024/01/23 02:35:37;;;;;;;0.10;0.10;;;;;;;-5.18;79.76;98140.84;5020841;28;20165;-57
2024/01/23 02:38:04;;;;;;;0.10;0.10;;;;;;;-5.22;80.05;98150.50;5004110;28;20092;-58
2024/01/23 02:40:31;;;;;;;0.10;0.10;;;;;;;-5.48;80.90;98107.91;5003744;28;20069;-56
2024/01/23 02:42:58;;;;;;;0.17;0.17;;;;;;;-5.16;80.45;98127.94;5004030;28;20054;-58
2024/01/23 02:45:25;;;;;;;0.10;0.10;;;;;;;-5.24;80.76;98131.03;5003467;28;20535;-59
2024/01/23 02:47:51;;;;;;;0.10;0.10;;;;;;;-5.15;80.65;98129.56;5004182;28;20326;-57
2024/01/23 02:50:18;;;;;;;0.10;0.10;;;;;;;-5.15;80.29;98140.38;5003531;28;20432;-57
2024/01/23 02:52:45;;;;;;;0.10;0.10;;;;;;;-5.27;80.05;98112.63;5002283;28;20232;-58
2024/01/23 02:55:12;;;;;;;0.10;0.10;;;;;;;-5.60;80.23;98069.38;5003402;28;20156;-61
2024/01/23 02:57:39;;;;;;;0.10;0.10;;;;;;;-5.13;80.02;98132.84;5003758;28;20064;-57
2024/01/23 03:00:08;;;;;;;0.10;0.10;;;;;;;-5.34;79.95;98108.44;5010259;28;20255;-57
2024/01/23 03:02:34;;;;;;;0.10;0.10;;;;;;;-6.24;79.94;97966.56;5022002;28;20073;-58
2024/01/23 03:05:02;;;;;;;0.10;0.10;;;;;;;-5.37;80.10;98120.53;5021935;28;20417;-58
2024/01/23 03:07:29;;;;;;;0.10;0.10;;;;;;;-5.33;79.96;98127.09;5023252;28;20553;-58
2024/01/23 03:09:55;;;;;;;0.10;0.10;;;;;;;-5.41;79.83;98132.88;5023268;28;20439;-57
2024/01/23 03:12:24;;;;;;;0.10;0.10;;;;;;;-5.99;80.02;98059.50;5023384;28;20064;-58
2024/01/23 03:14:50;;;;;;;0.10;0.10;;;;;;;-5.66;80.24;98105.44;5023136;28;20440;-57
2024/01/23 03:17:18;;;;;;;0.10;0.10;;;;;;;-5.59;80.89;98122.28;5023380;28;20053;-57
2024/01/23 03:19:45;;;;;;;0.10;0.10;;;;;;;-5.45;79.94;98129.03;5023418;28;20136;-57
2024/01/23 03:22:13;;;;;;;0.17;0.17;;;;;;;-5.52;80.55;98122.97;5026835;28;20049;-56
2024/01/23 03:24:40;;;;;;;0.10;0.10;;;;;;;-5.90;80.35;98130.88;5025200;28;20045;-57
2024/01/23 03:27:07;;;;;;;0.10;0.10;;;;;;;-5.55;79.75;98106.44;5026612;28;20568;-58
2024/01/23 03:29:44;;;;;;;0.10;0.10;;;;;;;-5.61;79.71;98108.22;4958982;28;20054;-59
2024/01/23 03:32:11;;;;;;;0.10;0.10;;;;;;;-5.88;79.85;98100.97;5041621;28;20057;-59
2024/01/23 03:34:39;;;;;;;0.10;0.10;;;;;;;-5.87;79.83;98103.44;5045116;28;20133;-58
2024/01/23 03:37:06;;;;;;;0.10;0.10;;;;;;;-6.02;80.26;98091.53;5044807;28;20049;-57
2024/01/23 03:39:33;;;;;;;0.10;0.10;;;;;;;-6.19;80.35;98077.97;5046251;28;20045;-57
2024/01/23 03:42:00;;;;;;;0.10;0.10;;;;;;;-5.92;80.30;98097.09;5046259;28;20488;-58
2024/01/23 03:44:27;;;;;;;0.10;0.10;;;;;;;-5.94;80.59;98091.94;5046383;28;20063;-57
2024/01/23 03:46:55;;;;;;;0.10;0.10;;;;;;;-5.86;80.61;98094.28;5046095;28;20498;-58
2024/01/23 03:49:22;;;;;;;0.10;0.10;;;;;;;-6.22;80.42;98038.03;5061539;28;20063;-57
2024/01/23 03:51:50;;;;;;;0.10;0.10;;;;;;;-6.43;80.76;98027.88;5045831;28;20523;-57
2024/01/23 03:54:17;;;;;;;0.10;0.10;;;;;;;-6.29;80.79;98018.47;5044394;28;20343;-58
2024/01/23 03:56:44;;;;;;;0.10;0.10;;;;;;;-5.82;80.64;98090.06;5046140;28;20045;-58
2024/01/23 03:59:11;;;;;;;0.10;0.10;;;;;;;-5.68;80.42;98075.19;5045858;28;20060;-59
2024/01/23 04:01:38;;;;;;;0.10;0.10;;;;;;;-5.59;80.42;98073.72;5041327;28;20060;-57
2024/01/23 04:04:05;;;;;;;0.10;0.10;;;;;;;-5.66;81.43;98074.94;5024561;28;20441;-59
2024/01/23 04:06:32;;;;;;;0.10;0.10;;;;;;;-5.73;81.13;98056.19;5026069;28;20056;-57
2024/01/23 04:09:00;;;;;;;0.10;0.10;;;;;;;-5.52;80.30;98063.59;5024754;28;20053;-57
2024/01/23 04:11:27;;;;;;;0.10;0.10;;;;;;;-5.52;79.85;98063.59;5025455;28;20496;-58
2024/01/23 04:13:53;;;;;;;0.10;0.10;;;;;;;-5.55;80.52;98058.69;5024705;28;20097;-56
2024/01/23 04:16:20;;;;;;;0.10;0.10;;;;;;;-6.10;80.57;97984.88;5025616;28;20136;-57
2024/01/23 04:18:47;;;;;;;0.10;0.10;;;;;;;-8.61;80.05;97549.50;5024263;28;20678;-58
2024/01/23 04:21:16;;;;;;;0.10;0.10;;;;;;;-5.79;79.70;98032.88;5025628;28;20145;-57
2024/01/23 04:23:43;;;;;;;0.10;0.10;;;;;;;-5.76;79.97;98066.63;5025713;28;20049;-57
2024/01/23 04:26:10;;;;;;;0.10;0.10;;;;;;;-5.49;79.84;98084.69;5025411;28;20053;-57
2024/01/23 04:28:37;;;;;;;0.10;0.10;;;;;;;-5.50;79.48;98055.25;5024263;28;20049;-61
2024/01/23 04:31:04;;;;;;;0.10;0.10;;;;;;;-5.66;80.20;98029.91;5019378;28;20334;-57
2024/01/23 04:33:31;;;;;;;0.10;0.10;;;;;;;-5.56;79.84;98035.44;5036542;28;20045;-57
2024/01/23 04:35:58;;;;;;;0.10;0.10;;;;;;;-5.43;80.08;98055.91;5025404;28;20080;-56
2024/01/23 04:38:24;;;;;;;0.10;0.10;;;;;;;-5.51;80.40;98046.34;5025367;28;20413;-56
2024/01/23 04:40:51;;;;;;;0.10;0.10;;;;;;;-5.77;79.92;98025.34;5025223;28;20397;-56
2024/01/23 04:43:18;;;;;;;0.10;0.10;;;;;;;-5.50;80.07;98044.47;5023815;28;20488;-60
2024/01/23 04:45:45;;;;;;;0.10;0.10;;;;;;;-6.45;80.56;97938.41;5023638;28;20571;-56
2024/01/23 04:48:12;;;;;;;0.10;0.10;;;;;;;-5.56;80.54;98040.84;5025189;28;20594;-59
2024/01/23 04:50:40;;;;;;;0.10;0.10;;;;;;;-5.58;80.12;98042.97;5023538;28;20387;-59
2024/01/23 04:53:06;;;;;;;0.10;0.10;;;;;;;-5.68;80.85;98053.59;5025147;28;20049;-58
2024/01/23 04:55:33;;;;;;;0.10;0.10;;;;;;;-5.61;80.14;98043.44;5023397;28;20049;-58
2024/01/23 04:58:00;;;;;;;0.10;0.10;;;;;;;-5.62;79.34;98046.38;5025346;28;20072;-59
2024/01/23 05:00:26;;;;;;;0.10;0.10;;;;;;;-5.69;79.38;98046.53;5032658;28;20056;-57
2024/01/23 05:02:53;;;;;;;0.10;0.10;;;;;;;-5.77;78.41;98055.03;5045153;28;20059;-58
2024/01/23 05:05:21;;;;;;;0.10;0.10;;;;;;;-5.89;79.21;98057.00;5044409;28;20053;-56
2024/01/23 05:07:47;;;;;;;0.10;0.10;;;;;;;-5.94;78.65;98051.50;5044245;28;20084;-57
2024/01/23 05:10:15;;;;;;;0.10;0.10;;;;;;;-5.88;79.04;98047.84;5044635;28;20406;-57
2024/01/23 05:12:41;;;;;;;0.10;0.10;;;;;;;-5.85;78.31;98042.00;5044116;28;20554;-56
2024/01/23 05:15:08;;;;;;;0.10;0.10;;;;;;;-6.35;78.81;97976.31;5044272;28;20049;-57
2024/01/23 05:17:36;;;;;;;0.10;0.10;;;;;;;-5.77;78.83;98046.94;5043069;28;20049;-56
2024/01/23 05:20:07;;;;;;;0.10;0.10;;;;;;;-5.80;79.09;98062.81;5044144;28;20619;-56
2024/01/23 05:22:35;;;;;;;0.10;0.10;;;;;;;-5.78;79.56;98036.38;5042856;28;20061;-58
2024/01/23 05:25:03;;;;;;;0.10;0.10;;;;;;;-5.91;79.64;98021.34;5043064;28;20362;-57
2024/01/23 05:27:29;;;;;;;0.10;0.10;;;;;;;-5.92;79.95;98019.72;5042858;28;20049;-57
2024/01/23 05:29:56;;;;;;;0.10;0.10;;;;;;;-5.99;80.49;97994.78;5044159;28;20067;-58
2024/01/23 05:32:23;;;;;;;0.10;0.10;;;;;;;-6.40;80.07;97914.22;5044739;28;20844;-58
2024/01/23 05:34:50;;;;;;;0.10;0.10;;;;;;;-5.81;80.07;98031.47;5044401;28;20065;-58
2024/01/23 05:37:17;;;;;;;0.10;0.10;;;;;;;-6.13;79.85;97966.47;5044544;28;20084;-56
2024/01/23 05:39:44;;;;;;;0.10;0.10;;;;;;;-5.62;79.64;98035.59;5027874;28;20049;-57
2024/01/23 05:42:11;;;;;;;0.10;0.10;;;;;;;-5.69;79.66;98018.75;5023790;28;20504;-57
2024/01/23 05:44:38;;;;;;;0.10;0.10;;;;;;;-5.70;79.70;98012.53;5024325;28;20639;-57
2024/01/23 05:47:06;;;;;;;0.10;0.10;;;;;;;-5.59;79.62;98014.34;5023875;28;20061;-56
2024/01/23 05:49:33;;;;;;;0.10;0.10;;;;;;;-5.74;80.05;98006.00;5027277;28;20051;-57
2024/01/23 05:52:00;;;;;;;0.10;0.10;;;;;;;-5.54;80.27;98000.94;5043795;28;20052;-57
2024/01/23 05:54:27;;;;;;;0.10;0.10;;;;;;;-5.44;80.26;98006.53;5042044;28;20137;-59
2024/01/23 05:56:54;;;;;;;0.10;0.10;;;;;;;-5.43;78.89;97997.34;5043265;28;20086;-58
2024/01/23 05:59:20;;;;;;;0.10;0.10;;;;;;;-5.76;78.91;97985.72;5011339;28;20058;-60
2024/01/23 06:01:51;;;;;;;0.10;0.10;;;;;;;-5.45;79.12;97999.47;5023684;28;20107;-58
2024/01/23 06:04:17;;;;;;;0.10;0.10;;;;;;;-6.03;79.60;97910.06;5023714;28;20059;-58
2024/01/23 06:06:44;;;;;;;0.10;0.10;;;;;;;-5.88;78.93;97915.69;5024022;28;20112;-58
2024/01/23 06:09:11;;;;;;;0.10;0.10;;;;;;;-5.20;78.93;98005.25;5023718;28;20053;-58
2024/01/23 06:11:39;;;;;;;0.10;0.10;;;;;;;-5.85;78.96;97890.94;5023392;28;20457;-59
2024/01/23 06:14:07;;;;;;;0.20;0.20;;;;;;;-5.83;79.06;97888.81;5024110;28;20413;-57
2024/01/23 06:16:34;;;;;;;0.10;0.10;;;;;;;-5.19;78.29;97993.41;5023767;28;20428;-56
2024/01/23 06:19:00;;;;;;;0.10;0.10;;;;;;;-5.15;78.84;97983.75;5023922;28;20079;-58
2024/01/23 06:21:27;;;;;;;0.10;0.10;;;;;;;-5.17;78.84;97991.28;5023781;28;20073;-58
2024/01/23 06:23:54;;;;;;;0.10;0.10;;;;;;;-5.85;78.31;97858.59;5023432;28;20050;-59
2024/01/23 06:26:21;;;;;;;0.15;0.15;;;;;;;-5.06;76.45;97997.66;5021939;28;20108;-58
2024/01/23 06:28:48;;;;;;;0.10;0.10;;;;;;;-5.25;76.34;97945.78;5023386;28;20049;-58
2024/01/23 06:31:15;;;;;;;0.10;0.10;;;;;;;-5.43;75.34;97911.00;5023663;28;20049;-59
2024/01/23 06:33:42;;;;;;;0.10;0.10;;;;;;;-5.43;75.65;97878.59;5023680;28;20065;-59
2024/01/23 06:36:09;;;;;;;0.10;0.10;;;;;;;-4.92;75.51;97948.44;5021875;28;20089;-58
2024/01/23 06:38:36;;;;;;;0.10;0.10;;;;;;;-5.04;75.50;97909.91;5022334;28;20147;-58
2024/01/23 06:41:03;;;;;;;0.10;0.10;;;;;;;-4.92;74.71;97913.31;5023405;28;20045;-58
2024/01/23 06:43:29;;;;;;;0.10;0.10;;;;;;;-4.27;74.73;97988.16;5021959;28;20566;-59
2024/01/23 06:45:57;;;;;;;0.10;0.10;;;;;;;-4.68;74.13;97903.88;5023582;28;20065;-59
2024/01/23 06:48:24;;;;;;;0.10;0.10;;;;;;;-3.98;73.69;97978.75;5023311;28;20617;-58
2024/01/23 06:50:51;;;;;;;0.10;0.10;;;;;;;-3.80;72.77;97976.50;5023642;28;20049;-58
2024/01/23 06:53:17;;;;;;;0.10;0.10;;;;;;;-3.67;72.33;97969.84;5023236;28;20096;-59
2024/01/23 06:55:45;;;;;;;0.10;0.10;;;;;;;-4.10;72.64;97889.63;5026543;28;20065;-57
2024/01/23 06:58:12;;;;;;;0.20;0.20;;;;;;;-3.40;71.63;97962.50;5025490;28;20049;-57
2024/01/23 07:00:39;;;;;;;0.10;0.10;;;;;;;-3.28;71.43;97960.41;5026947;28;20041;-57
2024/01/23 07:03:08;;;;;;;0.10;0.10;;;;;;;-3.20;71.54;97957.22;4973573;28;20058;-60
2024/01/23 07:05:35;;;;;;;0.10;0.10;;;;;;;-3.23;70.53;97944.19;5007265;28;20112;-59
2024/01/23 07:08:05;;;;;;;0.10;0.10;;;;;;;-3.47;70.88;97910.44;5007213;28;20061;-61
2024/01/23 07:10:32;;;;;;;0.10;0.10;;;;;;;-3.05;71.24;97960.03;5006112;28;20149;-60
2024/01/23 07:12:59;;;;;;;0.10;0.10;;;;;;;-2.76;71.48;97953.16;5005099;28;20502;-58
2024/01/23 07:15:25;;;;;;;0.10;0.10;;;;;;;-2.55;70.59;97957.63;5004355;28;20524;-61
2024/01/23 07:17:53;;;;;;;0.13;0.13;;;;;;;-2.47;70.56;97948.97;5003813;28;20552;-58
2024/01/23 07:20:20;;;;;;;0.20;0.20;;;;;;;-2.80;70.00;97895.16;5004292;28;20050;-57
2024/01/23 07:22:47;;;;;;;0.20;0.20;;;;;;;-2.12;70.43;97946.34;5004743;28;20222;-57
2024/01/23 07:25:14;;;;;;;0.10;0.10;;;;;;;-2.44;69.58;97849.97;5005071;28;20046;-56
2024/01/23 07:27:41;;;;;;;0.20;0.20;;;;;;;-2.46;68.80;97812.28;5005031;28;20919;-57
2024/01/23 07:30:08;;;;;;;0.20;0.20;;;;;;;-1.40;68.14;97931.78;5005944;28;20414;-56
2024/01/23 07:32:34;;;;;;;0.10;0.10;;;;;;;-1.35;68.28;97907.34;5006133;28;20136;-57
2024/01/23 07:35:02;;;;;;;0.20;0.20;;;;;;;-0.93;66.54;97937.72;5005864;28;20046;-58
2024/01/23 07:37:30;;;;;;;0.20;0.20;;;;;;;-0.84;66.61;97942.34;5005515;28;20053;-59
2024/01/23 07:39:58;;;;;;;0.20;0.20;;;;;;;-0.88;65.80;97940.41;5003992;28;20112;-62
2024/01/23 07:42:24;;;;;;;0.20;0.20;;;;;;;-0.65;65.66;97934.38;5005618;28;20064;-60
2024/01/23 07:44:51;;;;;;;0.20;0.20;;;;;;;-0.40;65.85;97939.75;5005445;28;20046;-61
2024/01/23 07:47:18;;;;;;;0.20;0.20;;;;;;;-0.08;65.56;97923.81;5005260;28;20040;-60
2024/01/23 07:49:45;;;;;;;0.20;0.20;;;;;;;0.02;64.63;97923.72;4993865;28;20050;-60
2024/01/23 07:52:19;;;;;;;0.20;0.20;;;;;;;-0.13;63.57;97872.09;4998089;28;20054;-59
2024/01/23 07:54:46;;;;;;;0.20;0.20;;;;;;;0.32;63.30;97928.97;5003739;28;20551;-59
2024/01/23 07:57:13;;;;;;;0.20;0.20;;;;;;;0.51;62.98;97926.38;5005951;28;20057;-60
2024/01/23 07:59:40;;;;;;;0.20;0.20;;;;;;;0.80;61.84;97919.06;5005022;28;20046;-59
2024/01/23 08:02:07;;;;;;;0.20;0.20;;;;;;;0.75;61.67;97921.81;5005862;28;20055;-57
2024/01/23 08:04:34;;;;;;;0.20;0.20;;;;;;;0.76;61.72;97897.00;5005210;28;20406;-56
2024/01/23 08:07:00;;;;;;;0.20;0.20;;;;;;;0.83;62.17;97894.78;5000234;28;20049;-59
2024/01/23 08:09:28;;;;;;;0.20;0.20;;;;;;;0.16;61.81;97804.88;5005197;28;20133;-57
2024/01/23 08:11:54;;;;;;;0.20;0.20;;;;;;;0.76;62.72;97918.03;5004522;28;20512;-59
2024/01/23 08:14:22;;;;;;;0.20;0.20;;;;;;;0.54;63.13;97902.09;5005398;28;20061;-61
2024/01/23 08:16:50;;;;;;;0.20;0.20;;;;;;;0.46;63.67;97919.06;5004135;28;20112;-61
2024/01/23 08:19:16;;;;;;;0.20;0.20;;;;;;;0.75;63.78;97917.19;5001294;28;20069;-61
2024/01/23 08:21:43;;;;;;;0.20;0.20;;;;;;;0.90;62.93;97929.88;5005462;28;20049;-57
2024/01/23 08:24:10;;;;;;;0.20;0.20;;;;;;;0.96;61.63;97913.19;5005650;28;20053;-61
2024/01/23 08:26:37;;;;;;;0.20;0.20;;;;;;;0.89;62.82;97874.53;5004505;28;20572;-59
2024/01/23 08:29:04;;;;;;;0.20;0.20;;;;;;;1.44;62.01;97893.00;5003632;28;20050;-61
2024/01/23 08:31:30;;;;;;;0.20;0.20;;;;;;;1.32;60.44;97851.69;5003130;28;20064;-59
2024/01/23 08:33:57;;;;;;;0.20;0.20;;;;;;;1.68;60.19;97853.94;4999183;28;20046;-57
2024/01/23 08:36:25;;;;;;;0.20;0.20;;;;;;;1.71;60.11;97897.06;4999977;28;20061;-61
2024/01/23 08:38:52;;;;;;;0.20;0.20;;;;;;;1.86;59.61;97883.19;5002912;28;20060;-62
2024/01/23 08:41:19;;;;;;;0.20;0.20;;;;;;;2.06;59.50;97882.91;5003074;28;20299;-59
2024/01/23 08:43:45;;;;;;;0.20;0.20;;;;;;;1.75;60.17;97848.94;5005139;28;20054;-58
2024/01/23 08:46:16;;;;;;;0.20;0.20;;;;;;;1.89;60.56;97882.59;5003609;28;20062;-61
2024/01/23 08:48:42;;;;;;;0.20;0.20;;;;;;;2.03;59.99;97873.41;5004635;28;20077;-60
2024/01/23 08:51:10;;;;;;;0.20;0.20;;;;;;;1.99;60.99;97871.56;5005066;28;20116;-61
2024/01/23 08:53:38;;;;;;;0.20;0.20;;;;;;;1.90;59.95;97824.16;5004971;28;20054;-60
2024/01/23 08:56:04;;;;;;;0.20;0.20;;;;;;;2.17;60.48;97873.44;5004819;28;20060;-60
2024/01/23 08:58:31;;;;;;;0.20;0.20;;;;;;;2.41;60.48;97865.97;5005007;28;20061;-59
2024/01/23 09:00:59;;;;;;;0.20;0.20;;;;;;;2.61;59.80;97844.56;5003396;28;20077;-60
2024/01/23 09:03:26;;;;;;;0.30;0.30;;;;;;;3.01;58.49;97859.47;5004496;28;20733;-60
2024/01/23 09:05:53;;;;;;;0.20;0.20;;;;;;;3.10;58.28;97860.38;5004528;28;20053;-58
2024/01/23 09:08:20;;;;;;;0.25;0.25;;;;;;;3.20;58.30;97849.25;5003173;28;20064;-59
2024/01/23 09:10:49;;;;;;;0.20;0.20;;;;;;;3.29;57.17;97847.41;5004647;28;20097;-62
2024/01/23 09:13:18;;;;;;;0.20;0.20;;;;;;;3.62;55.94;97840.69;5004621;28;20085;-61
2024/01/23 09:15:45;;;;;;;0.30;0.30;;;;;;;3.67;54.92;97842.53;5002474;28;20096;-59
2024/01/23 09:18:12;;;;;;;0.20;0.20;;;;;;;3.67;54.79;97832.38;5001866;28;20159;-61
2024/01/23 09:20:39;;;;;;;0.20;0.20;;;;;;;3.56;55.34;97798.09;5003071;28;20102;-58
2024/01/23 09:23:06;;;;;;;0.20;0.20;;;;;;;4.11;54.43;97826.22;4976690;28;20137;-58
2024/01/23 09:25:33;;;;;;;0.30;0.30;;;;;;;3.58;53.50;97713.72;4984385;28;20052;-59
2024/01/23 09:28:00;;;;;;;0.20;0.20;;;;;;;2.37;53.02;97506.88;4984586;28;20050;-60
2024/01/23 09:30:28;;;;;;;0.30;0.30;;;;;;;4.51;52.26;97858.94;4973460;28;20189;-61
2024/01/23 09:32:57;;;;;;;0.20;0.20;;;;;;;4.59;52.23;97780.56;4984205;28;20062;-61
2024/01/23 09:35:25;;;;;;;0.30;0.30;;;;;;;4.01;51.73;97665.53;4983728;28;20446;-58
2024/01/23 09:37:52;;;;;;;0.30;0.30;;;;;;;4.65;51.74;97752.69;4984160;28;20054;-57
2024/01/23 09:40:19;;;;;;;0.30;0.30;;;;;;;5.04;52.83;97795.03;4984303;28;20058;-61
2024/01/23 09:42:47;;;;;;;0.30;0.30;;;;;;;5.20;51.45;97785.25;4984312;28;20054;-64
2024/01/23 09:45:18;;;;;;;0.30;0.30;;;;;;;5.16;50.58;97793.28;4983234;28;20601;-62
2024/01/23 09:47:50;;;;;;;0.28;0.28;;;;;;;5.08;50.33;97779.53;4983334;28;20054;-65
2024/01/23 09:50:18;;;;;;;0.30;0.30;;;;;;;4.68;51.58;97743.81;4984153;28;20069;-62
2024/01/23 09:52:47;;;;;;;0.30;0.30;;;;;;;5.31;50.17;97778.34;4982994;28;20152;-58
2024/01/23 09:55:14;;;;;;;0.30;0.30;;;;;;;5.58;49.83;97767.09;4982962;28;20072;-59
2024/01/23 09:57:43;;;;;;;0.30;0.30;;;;;;;5.57;48.80;97770.94;4983500;28;20064;-63
2024/01/23 10:00:14;;;;;;;0.30;0.30;;;;;;;3.52;48.97;97430.16;4982679;28;20058;-67
2024/01/23 10:02:42;;;;;;;0.30;0.30;;;;;;;5.60;49.23;97786.78;4980743;28;20056;-61
2024/01/23 10:05:17;;;;;;;0.30;0.30;;;;;;;5.50;49.08;97748.66;4982379;28;20050;-62
2024/01/23 10:07:44;;;;;;;0.30;0.30;;;;;;;4.96;50.42;97655.78;4984111;28;20050;-60
2024/01/23 10:10:17;;;;;;;0.30;0.30;;;;;;;5.56;50.76;97781.16;4982694;28;20050;-61
2024/01/23 10:12:47;;;;;;;0.30;0.30;;;;;;;5.58;51.21;97761.59;4981600;28;20145;-63
2024/01/23 10:15:18;;;;;;;0.30;0.30;;;;;;;5.64;50.49;97765.81;4984314;28;20445;-60
2024/01/23 10:17:46;;;;;;;0.30;0.30;;;;;;;5.65;50.85;97759.16;4983747;28;20519;-59
2024/01/23 10:20:15;;;;;;;0.30;0.30;;;;;;;5.67;50.51;97768.72;4984387;28;20132;-59
2024/01/23 10:22:45;;;;;;;0.30;0.30;;;;;;;5.74;50.38;97758.03;4984592;28;20124;-62
2024/01/23 10:25:15;;;;;;;0.30;0.30;;;;;;;5.77;50.46;97745.63;4983979;28;20050;-58
2024/01/23 10:27:42;;;;;;;0.30;0.30;;;;;;;3.70;50.75;97426.34;4983976;28;20580;-59
2024/01/23 10:30:09;;;;;;;0.30;0.30;;;;;;;5.83;50.00;97752.59;4986154;28;20065;-63
2024/01/23 10:32:37;;;;;;;0.30;0.30;;;;;;;5.71;49.31;97722.97;4986266;28;20046;-57
2024/01/23 10:35:13;;;;;;;0.30;0.30;;;;;;;5.96;50.03;97751.63;4986823;28;20113;-63
2024/01/23 10:37:40;;;;;;;0.30;0.30;;;;;;;5.64;49.80;97706.13;4985202;28;20206;-62
2024/01/23 10:40:13;;;;;;;0.40;0.40;;;;;;;6.04;49.69;97743.38;4983002;28;20054;-60
2024/01/23 10:42:40;;;;;;;0.30;0.30;;;;;;;5.61;49.95;97742.50;4997755;28;20051;-61
2024/01/23 10:45:16;;;;;;;0.30;0.30;;;;;;;5.96;49.38;97740.63;4985639;28;20477;-62
2024/01/23 10:47:45;;;;;;;0.30;0.30;;;;;;;6.02;49.49;97733.84;4987250;28;20085;-63
2024/01/23 10:50:13;;;;;;;0.30;0.30;;;;;;;5.59;49.45;97642.28;4986186;28;20113;-62
2024/01/23 10:52:46;;;;;;;0.30;0.30;;;;;;;6.15;49.64;97721.84;4987298;28;20054;-60
2024/01/23 10:55:13;;;;;;;0.30;0.30;;;;;;;6.36;49.07;97713.72;4987236;28;20092;-60
2024/01/23 10:57:44;;;;;;;0.30;0.30;;;;;;;5.51;49.29;97640.34;4985572;28;20146;-60
2024/01/23 11:00:11;;;;;;;0.40;0.40;;;;;;;6.30;49.77;97707.59;4985890;28;20142;-64
2024/01/23 11:02:59;;;;;;;0.38;0.38;;;;;;;6.37;50.03;97707.88;4987194;28;20553;-59
2024/01/23 11:05:49;;;;;;;0.30;0.30;;;;;;;6.25;50.26;97721.53;4980563;28;20063;-62
2024/01/23 11:08:25;;;;;;;0.30;0.30;;;;;;;6.16;49.87;97701.47;4998486;28;20480;-61
2024/01/23 11:11:15;;;;;;;0.30;0.30;;;;;;;6.14;50.18;97692.75;4986348;28;20540;-60
2024/01/23 11:13:58;;;;;;;0.30;0.30;;;;;;;6.09;49.81;97679.97;4985575;28;20530;-59
2024/01/23 11:16:25;;;;;;;0.30;0.30;;;;;;;5.69;51.53;97691.44;5000848;28;20441;-62
2024/01/23 11:18:54;;;;;;;0.40;0.40;;;;;;;5.89;50.61;97677.06;4983671;28;20125;-64
2024/01/23 11:21:24;;;;;;;0.30;0.30;;;;;;;6.10;50.55;97664.28;4985950;28;20347;-58
2024/01/23 11:24:02;;;;;;;0.30;0.30;;;;;;;6.21;50.55;97668.31;4978288;28;20046;-58
2024/01/23 11:26:31;;;;;;;0.30;0.30;;;;;;;6.17;49.81;97659.06;4967096;28;20718;-59
2024/01/23 11:29:04;;;;;;;0.30;0.30;;;;;;;6.15;50.10;97661.34;4977237;28;20054;-58
2024/01/23 11:31:39;;;;;;;0.30;0.30;;;;;;;6.10;50.57;97661.53;4985555;28;20055;-61
2024/01/23 11:34:21;;;;;;;0.30;0.30;;;;;;;6.16;50.79;97657.47;4981968;28;20050;-58
2024/01/23 11:36:49;;;;;;;0.30;0.30;;;;;;;6.22;50.60;97656.16;4967266;28;20133;-62
2024/01/23 11:39:19;;;;;;;0.30;0.30;;;;;;;6.37;50.53;97652.88;4984330;28;20050;-58